Safford, Arizona
Current Conditions -  °F | °C
As of 6:51 AM on Wednesday 22 Oct 2014 (Local Time) from KSAD Reporting Station
Clear Clear  
Wind Chill: 58°   Ceiling: Unl
Heat Index: 58°   Visibility: 10mi
Dew Point: 52°   Wind: 5mph
Humidity: 81%   Direction: 120°ESE
Pressure: 30.04"   Gusts: NA
Location:  32.83°N, 109.7°W
Report Text: KSAD 221351Z AUTO 12004KT 10SM CLR 14/11 A3004 RMK AO2 SLP140 T01440111
Loading
Personal Weather Stations






























Interactive Weather Map
Tropical Storm Tracking
New forecast layout! Learn more

10-Day Weather Forecast

Advertisements
Track Severe Weather on mobile